sensor_id;sensor_type;location;lat;lon;timestamp;pressure;altitude;pressure_sealevel;temperature;humidity
40574;BME280;26283;49.020;8.644;2023-02-02T00:01:40;99974.34;;;7.65;60.63
40574;BME280;26283;49.020;8.644;2023-02-02T00:04:06;99974.53;;;7.64;60.63
40574;BME280;26283;49.020;8.644;2023-02-02T00:06:32;99971.66;;;7.65;60.63
40574;BME280;26283;49.020;8.644;2023-02-02T00:09:01;99983.41;;;7.64;60.63
40574;BME280;26283;49.020;8.644;2023-02-02T00:11:27;99977.03;;;7.65;60.63
40574;BME280;26283;49.020;8.644;2023-02-02T00:13:53;99982.38;;;7.65;60.63
40574;BME280;26283;49.020;8.644;2023-02-02T00:18:50;99970.81;;;7.65;60.63
40574;BME280;26283;49.020;8.644;2023-02-02T00:21:15;99978.69;;;7.66;60.64
40574;BME280;26283;49.020;8.644;2023-02-02T00:23:41;99995.81;;;7.65;60.64
40574;BME280;26283;49.020;8.644;2023-02-02T00:26:06;99969.16;;;7.64;60.64
40574;BME280;26283;49.020;8.644;2023-02-02T00:28:32;99961.75;;;7.66;60.64
40574;BME280;26283;49.020;8.644;2023-02-02T00:30:57;99986.91;;;7.65;60.65
40574;BME280;26283;49.020;8.644;2023-02-02T00:33:22;99986.91;;;7.65;60.65
40574;BME280;26283;49.020;8.644;2023-02-02T00:35:51;99975.16;;;7.66;60.65
40574;BME280;26283;49.020;8.644;2023-02-02T00:38:16;99988.59;;;7.66;60.64
40574;BME280;26283;49.020;8.644;2023-02-02T00:40:41;99971.66;;;7.65;60.64
40574;BME280;26283;49.020;8.644;2023-02-02T00:43:07;99984.88;;;7.67;60.67
40574;BME280;26283;49.020;8.644;2023-02-02T00:45:32;99969.81;;;7.66;60.65
40574;BME280;26283;49.020;8.644;2023-02-02T00:47:57;99979.53;;;7.67;60.66
40574;BME280;26283;49.020;8.644;2023-02-02T00:50:23;99980.53;;;7.66;60.66
40574;BME280;26283;49.020;8.644;2023-02-02T00:52:48;99966.12;;;7.67;60.67
40574;BME280;26283;49.020;8.644;2023-02-02T00:55:15;99958.06;;;7.67;60.67
40574;BME280;26283;49.020;8.644;2023-02-02T00:57:41;99961.75;;;7.66;60.66
40574;BME280;26283;49.020;8.644;2023-02-02T01:00:12;99971.47;;;7.67;60.66
40574;BME280;26283;49.020;8.644;2023-02-02T01:02:38;99972.50;;;7.66;60.67
40574;BME280;26283;49.020;8.644;2023-02-02T01:05:04;99975.00;;;7.67;60.68
40574;BME280;26283;49.020;8.644;2023-02-02T01:07:29;99968.78;;;7.67;60.67
40574;BME280;26283;49.020;8.644;2023-02-02T01:09:55;99960.75;;;7.67;60.67
40574;BME280;26283;49.020;8.644;2023-02-02T01:12:20;99963.44;;;7.67;60.67
40574;BME280;26283;49.020;8.644;2023-02-02T01:14:46;99963.44;;;7.67;60.66
40574;BME280;26283;49.020;8.644;2023-02-02T01:17:12;99977.69;;;7.67;60.68
40574;BME280;26283;49.020;8.644;2023-02-02T01:19:38;99973.16;;;7.68;60.68
40574;BME280;26283;49.020;8.644;2023-02-02T01:22:04;99984.88;;;7.67;60.67
40574;BME280;26283;49.020;8.644;2023-02-02T01:24:29;99981.19;;;7.68;60.69
40574;BME280;26283;49.020;8.644;2023-02-02T01:26:55;99975.16;;;7.66;60.67
40574;BME280;26283;49.020;8.644;2023-02-02T01:29:20;99984.88;;;7.67;60.67
40574;BME280;26283;49.020;8.644;2023-02-02T01:31:46;99975.81;;;7.68;60.68
40574;BME280;26283;49.020;8.644;2023-02-02T01:34:11;99989.25;;;7.68;60.67
40574;BME280;26283;49.020;8.644;2023-02-02T01:36:37;100002.66;;;7.68;60.69
40574;BME280;26283;49.020;8.644;2023-02-02T01:39:02;99999.97;;;7.68;60.68
40574;BME280;26283;49.020;8.644;2023-02-02T01:41:28;99998.31;;;7.67;60.68
40574;BME280;26283;49.020;8.644;2023-02-02T01:43:59;99991.91;;;7.68;60.69
40574;BME280;26283;49.020;8.644;2023-02-02T01:46:30;99986.56;;;7.68;60.69
40574;BME280;26283;49.020;8.644;2023-02-02T01:48:57;99981.19;;;7.68;60.69
40574;BME280;26283;49.020;8.644;2023-02-02T01:51:31;99983.88;;;7.68;60.69
40574;BME280;26283;49.020;8.644;2023-02-02T01:53:59;99966.12;;;7.67;60.70
40574;BME280;26283;49.020;8.644;2023-02-02T01:56:33;99983.88;;;7.68;60.69
40574;BME280;26283;49.020;8.644;2023-02-02T01:59:00;99955.37;;;7.67;60.70
40574;BME280;26283;49.020;8.644;2023-02-02T02:01:26;99965.09;;;7.68;60.70
40574;BME280;26283;49.020;8.644;2023-02-02T02:03:52;99965.94;;;7.68;60.72
40574;BME280;26283;49.020;8.644;2023-02-02T02:06:18;99963.25;;;7.68;60.72
40574;BME280;26283;49.020;8.644;2023-02-02T02:09:16;99960.56;;;7.68;60.72
40574;BME280;26283;49.020;8.644;2023-02-02T02:11:42;99967.78;;;7.68;60.75
40574;BME280;26283;49.020;8.644;2023-02-02T02:14:09;99962.41;;;7.68;60.70
40574;BME280;26283;49.020;8.644;2023-02-02T02:37:02;99974.16;;;7.67;60.81
40574;BME280;26283;49.020;8.644;2023-02-02T02:39:36;99978.69;;;7.66;60.81
40574;BME280;26283;49.020;8.644;2023-02-02T02:42:08;99986.75;;;7.66;60.80
40574;BME280;26283;49.020;8.644;2023-02-02T02:44:36;99984.88;;;7.67;60.81
40574;BME280;26283;49.020;8.644;2023-02-02T02:47:02;99985.72;;;7.67;60.82
40574;BME280;26283;49.020;8.644;2023-02-02T02:49:28;99963.44;;;7.67;60.83
40574;BME280;26283;49.020;8.644;2023-02-02T02:51:54;99958.91;;;7.67;60.82
40574;BME280;26283;49.020;8.644;2023-02-02T02:54:21;99979.34;;;7.68;60.83
40574;BME280;26283;49.020;8.644;2023-02-02T03:00:32;99972.31;;;7.67;60.82
40574;BME280;26283;49.020;8.644;2023-02-02T03:03:07;99983.03;;;7.67;60.81
40574;BME280;26283;49.020;8.644;2023-02-02T03:05:48;99981.19;;;7.68;60.78
40574;BME280;26283;49.020;8.644;2023-02-02T03:10:56;99983.03;;;7.67;60.82
40574;BME280;26283;49.020;8.644;2023-02-02T03:13:23;99992.75;;;7.68;60.82
40574;BME280;26283;49.020;8.644;2023-02-02T03:15:49;99985.72;;;7.67;60.82
40574;BME280;26283;49.020;8.644;2023-02-02T03:18:16;99992.75;;;7.68;60.84
40574;BME280;26283;49.020;8.644;2023-02-02T03:20:44;99983.88;;;7.68;60.83
40574;BME280;26283;49.020;8.644;2023-02-02T03:23:10;99982.84;;;7.69;60.82
40574;BME280;26283;49.020;8.644;2023-02-02T03:25:36;99978.50;;;7.68;60.83
40574;BME280;26283;49.020;8.644;2023-02-02T03:28:01;99967.59;;;7.69;60.83
40574;BME280;26283;49.020;8.644;2023-02-02T03:30:27;99981.00;;;7.69;60.82
40574;BME280;26283;49.020;8.644;2023-02-02T03:32:53;99995.25;;;7.70;60.82
40574;BME280;26283;49.020;8.644;2023-02-02T03:35:18;99983.69;;;7.69;60.81
40574;BME280;26283;49.020;8.644;2023-02-02T03:37:45;99978.31;;;7.69;60.81
40574;BME280;26283;49.020;8.644;2023-02-02T03:40:11;99979.16;;;7.70;60.80
40574;BME280;26283;49.020;8.644;2023-02-02T03:42:37;99969.44;;;7.69;60.80
40574;BME280;26283;49.020;8.644;2023-02-02T03:45:02;99966.59;;;7.70;60.81
40574;BME280;26283;49.020;8.644;2023-02-02T03:47:29;99979.16;;;7.70;60.81
40574;BME280;26283;49.020;8.644;2023-02-02T03:49:55;99986.37;;;7.69;60.81
40574;BME280;26283;49.020;8.644;2023-02-02T03:52:20;99984.53;;;7.70;60.82
40574;BME280;26283;49.020;8.644;2023-02-02T03:54:46;99966.59;;;7.70;60.81
40574;BME280;26283;49.020;8.644;2023-02-02T03:57:11;99978.97;;;7.71;60.82
40574;BME280;26283;49.020;8.644;2023-02-02T03:59:37;99989.72;;;7.71;60.82
40574;BME280;26283;49.020;8.644;2023-02-02T04:02:02;99985.19;;;7.72;60.82
40574;BME280;26283;49.020;8.644;2023-02-02T04:04:27;99983.50;;;7.71;60.81
40574;BME280;26283;49.020;8.644;2023-02-02T04:06:53;99995.06;;;7.71;60.81
40574;BME280;26283;49.020;8.644;2023-02-02T04:09:18;99988.88;;;7.71;60.82
40574;BME280;26283;49.020;8.644;2023-02-02T04:11:44;99992.41;;;7.71;60.82
40574;BME280;26283;49.020;8.644;2023-02-02T04:14:09;99996.09;;;7.70;60.81
40574;BME280;26283;49.020;8.644;2023-02-02T04:16:34;99998.59;;;7.72;60.81
40574;BME280;26283;49.020;8.644;2023-02-02T04:19:05;100000.44;;;7.71;60.81
40574;BME280;26283;49.020;8.644;2023-02-02T04:21:30;99998.59;;;7.72;60.82
40574;BME280;26283;49.020;8.644;2023-02-02T04:23:55;100002.13;;;7.72;60.81
40574;BME280;26283;49.020;8.644;2023-02-02T04:26:21;100009.34;;;7.72;60.82
40574;BME280;26283;49.020;8.644;2023-02-02T04:28:50;100005.81;;;7.71;60.81
40574;BME280;26283;49.020;8.644;2023-02-02T04:31:15;100007.47;;;7.72;60.81
40574;BME280;26283;49.020;8.644;2023-02-02T04:33:41;99999.44;;;7.72;60.81
40574;BME280;26283;49.020;8.644;2023-02-02T04:36:06;100002.13;;;7.72;60.82
40574;BME280;26283;49.020;8.644;2023-02-02T04:38:32;100006.66;;;7.72;60.82
40574;BME280;26283;49.020;8.644;2023-02-02T04:40:57;100009.97;;;7.74;60.81
40574;BME280;26283;49.020;8.644;2023-02-02T04:43:22;100012.84;;;7.72;60.82
40574;BME280;26283;49.020;8.644;2023-02-02T04:45:54;100020.06;;;7.72;60.82
40574;BME280;26283;49.020;8.644;2023-02-02T04:48:19;100007.47;;;7.72;60.82
40574;BME280;26283;49.020;8.644;2023-02-02T04:50:45;100020.91;;;7.72;60.82
40574;BME280;26283;49.020;8.644;2023-02-02T04:53:10;100027.09;;;7.73;60.82
40574;BME280;26283;49.020;8.644;2023-02-02T04:55:36;100033.28;;;7.73;60.83
40574;BME280;26283;49.020;8.644;2023-02-02T04:58:02;100027.09;;;7.73;60.83
40574;BME280;26283;49.020;8.644;2023-02-02T05:00:28;100020.06;;;7.72;60.83
40574;BME280;26283;49.020;8.644;2023-02-02T05:02:53;100029.78;;;7.73;60.84
40574;BME280;26283;49.020;8.644;2023-02-02T05:05:18;100023.41;;;7.74;60.84
40574;BME280;26283;49.020;8.644;2023-02-02T05:07:44;100019.03;;;7.73;60.85
40574;BME280;26283;49.020;8.644;2023-02-02T05:10:10;100018.22;;;7.72;60.84
40574;BME280;26283;49.020;8.644;2023-02-02T05:12:36;100027.09;;;7.73;60.85
40574;BME280;26283;49.020;8.644;2023-02-02T05:15:01;100027.09;;;7.73;60.85
40574;BME280;26283;49.020;8.644;2023-02-02T05:17:29;100034.13;;;7.74;60.85
40574;BME280;26283;49.020;8.644;2023-02-02T05:19:54;100038.66;;;7.73;60.86
40574;BME280;26283;49.020;8.644;2023-02-02T05:22:20;100049.41;;;7.73;60.85
40574;BME280;26283;49.020;8.644;2023-02-02T05:24:45;100027.94;;;7.73;60.84
40574;BME280;26283;49.020;8.644;2023-02-02T05:27:11;100039.50;;;7.74;60.85
40574;BME280;26283;49.020;8.644;2023-02-02T05:29:36;100051.06;;;7.74;60.85
40574;BME280;26283;49.020;8.644;2023-02-02T05:32:02;100050.22;;;7.74;60.86
40574;BME280;26283;49.020;8.644;2023-02-02T05:34:27;100040.34;;;7.74;60.86
40574;BME280;26283;49.020;8.644;2023-02-02T05:36:53;100050.22;;;7.74;60.86
40574;BME280;26283;49.020;8.644;2023-02-02T05:39:18;100054.59;;;7.75;60.86
40574;BME280;26283;49.020;8.644;2023-02-02T05:41:44;100042.19;;;7.74;60.85
40574;BME280;26283;49.020;8.644;2023-02-02T05:44:13;100052.91;;;7.74;60.85
40574;BME280;26283;49.020;8.644;2023-02-02T05:46:38;100055.59;;;7.74;60.86
40574;BME280;26283;49.020;8.644;2023-02-02T05:49:05;100061.13;;;7.72;60.86
40574;BME280;26283;49.020;8.644;2023-02-02T05:51:53;100053.94;;;7.73;60.87
40574;BME280;26283;49.020;8.644;2023-02-02T05:54:17;100051.06;;;7.74;60.86
40574;BME280;26283;49.020;8.644;2023-02-02T05:56:48;100055.59;;;7.74;60.85
40574;BME280;26283;49.020;8.644;2023-02-02T05:59:14;100058.28;;;7.74;60.87
40574;BME280;26283;49.020;8.644;2023-02-02T06:01:41;100047.72;;;7.72;60.87
40574;BME280;26283;49.020;8.644;2023-02-02T06:04:07;100055.59;;;7.74;60.88
40574;BME280;26283;49.020;8.644;2023-02-02T06:06:32;100064.47;;;7.74;60.88
40574;BME280;26283;49.020;8.644;2023-02-02T06:09:00;100060.13;;;7.73;60.88
40574;BME280;26283;49.020;8.644;2023-02-02T06:11:25;100071.69;;;7.74;60.88
40574;BME280;26283;49.020;8.644;2023-02-02T06:13:50;100071.69;;;7.74;60.88
40574;BME280;26283;49.020;8.644;2023-02-02T06:16:16;100073.53;;;7.73;60.88
40574;BME280;26283;49.020;8.644;2023-02-02T06:18:41;100074.37;;;7.74;60.88
40574;BME280;26283;49.020;8.644;2023-02-02T06:21:06;100068.00;;;7.75;60.90
40574;BME280;26283;49.020;8.644;2023-02-02T06:23:33;100073.53;;;7.73;60.88
40574;BME280;26283;49.020;8.644;2023-02-02T06:25:58;100071.69;;;7.74;60.89
40574;BME280;26283;49.020;8.644;2023-02-02T06:28:24;100075.22;;;7.74;60.89
40574;BME280;26283;49.020;8.644;2023-02-02T06:30:49;100080.56;;;7.74;60.89
40574;BME280;26283;49.020;8.644;2023-02-02T06:33:15;100067.16;;;7.74;60.90
40574;BME280;26283;49.020;8.644;2023-02-02T06:35:40;100081.41;;;7.75;60.90
40574;BME280;26283;49.020;8.644;2023-02-02T06:38:05;100083.25;;;7.74;60.90
40574;BME280;26283;49.020;8.644;2023-02-02T06:40:31;100066.31;;;7.74;60.90
40574;BME280;26283;49.020;8.644;2023-02-02T06:42:59;100059.94;;;7.75;60.89
40574;BME280;26283;49.020;8.644;2023-02-02T06:45:25;100059.12;;;7.74;60.89
40574;BME280;26283;49.020;8.644;2023-02-02T06:47:51;100076.03;;;7.75;60.90
40574;BME280;26283;49.020;8.644;2023-02-02T06:50:17;100071.69;;;7.74;60.90
40574;BME280;26283;49.020;8.644;2023-02-02T06:52:50;100077.91;;;7.74;60.90
40574;BME280;26283;49.020;8.644;2023-02-02T06:55:16;100078.72;;;7.75;60.91
40574;BME280;26283;49.020;8.644;2023-02-02T06:57:42;100073.38;;;7.75;60.90
40574;BME280;26283;49.020;8.644;2023-02-02T07:00:08;100079.75;;;7.74;60.90
40574;BME280;26283;49.020;8.644;2023-02-02T07:02:33;100073.38;;;7.75;60.90
40574;BME280;26283;49.020;8.644;2023-02-02T07:04:59;100075.22;;;7.74;60.91
40574;BME280;26283;49.020;8.644;2023-02-02T07:07:25;100089.47;;;7.75;60.91
40574;BME280;26283;49.020;8.644;2023-02-02T07:09:50;100075.22;;;7.74;60.91
40574;BME280;26283;49.020;8.644;2023-02-02T07:12:15;100062.62;;;7.75;60.91
40574;BME280;26283;49.020;8.644;2023-02-02T07:14:43;100068.84;;;7.75;60.90
40574;BME280;26283;49.020;8.644;2023-02-02T07:17:09;100064.47;;;7.74;60.90
40574;BME280;26283;49.020;8.644;2023-02-02T07:19:35;100065.31;;;7.75;60.91
40574;BME280;26283;49.020;8.644;2023-02-02T07:22:00;100069.84;;;7.74;60.91
40574;BME280;26283;49.020;8.644;2023-02-02T07:24:26;100069.84;;;7.74;60.92
40574;BME280;26283;49.020;8.644;2023-02-02T07:26:51;100075.22;;;7.74;60.92
40574;BME280;26283;49.020;8.644;2023-02-02T07:29:17;100082.44;;;7.74;60.91
40574;BME280;26283;49.020;8.644;2023-02-02T07:31:42;100082.25;;;7.75;60.93
40574;BME280;26283;49.020;8.644;2023-02-02T07:34:08;100084.09;;;7.75;60.93
40574;BME280;26283;49.020;8.644;2023-02-02T07:36:33;100083.25;;;7.74;60.93
40574;BME280;26283;49.020;8.644;2023-02-02T07:38:59;100087.63;;;7.75;60.93
40574;BME280;26283;49.020;8.644;2023-02-02T07:41:28;100084.09;;;7.75;60.93
40574;BME280;26283;49.020;8.644;2023-02-02T07:43:53;100081.41;;;7.75;60.93
40574;BME280;26283;49.020;8.644;2023-02-02T07:46:19;100061.78;;;7.74;60.93
40574;BME280;26283;49.020;8.644;2023-02-02T07:48:45;100066.31;;;7.74;60.91
40574;BME280;26283;49.020;8.644;2023-02-02T07:51:13;100081.41;;;7.75;60.94
40574;BME280;26283;49.020;8.644;2023-02-02T07:53:45;100086.78;;;7.75;60.93
40574;BME280;26283;49.020;8.644;2023-02-02T07:56:20;100092.16;;;7.75;60.93
40574;BME280;26283;49.020;8.644;2023-02-02T07:58:46;100100.19;;;7.75;60.93
40574;BME280;26283;49.020;8.644;2023-02-02T08:01:13;100106.41;;;7.75;60.93
40574;BME280;26283;49.020;8.644;2023-02-02T08:03:39;100115.28;;;7.76;60.94
40574;BME280;26283;49.020;8.644;2023-02-02T08:06:10;100116.28;;;7.75;60.94
40574;BME280;26283;49.020;8.644;2023-02-02T08:08:36;100130.53;;;7.75;60.94
40574;BME280;26283;49.020;8.644;2023-02-02T08:11:02;100118.97;;;7.75;60.94
40574;BME280;26283;49.020;8.644;2023-02-02T08:13:27;100129.53;;;7.76;60.96
40574;BME280;26283;49.020;8.644;2023-02-02T08:15:52;100130.53;;;7.75;60.94
40574;BME280;26283;49.020;8.644;2023-02-02T08:18:18;100137.59;;;7.76;60.96
40574;BME280;26283;49.020;8.644;2023-02-02T08:20:43;100141.28;;;7.75;60.96
40574;BME280;26283;49.020;8.644;2023-02-02T08:23:08;100152.00;;;7.75;60.95
40574;BME280;26283;49.020;8.644;2023-02-02T08:25:40;100155.53;;;7.76;60.96
40574;BME280;26283;49.020;8.644;2023-02-02T08:28:05;100150.16;;;7.76;60.96
40574;BME280;26283;49.020;8.644;2023-02-02T08:30:31;100150.16;;;7.76;60.96
40574;BME280;26283;49.020;8.644;2023-02-02T08:32:56;100158.22;;;7.76;60.96
40574;BME280;26283;49.020;8.644;2023-02-02T08:35:21;100165.44;;;7.75;60.96
40574;BME280;26283;49.020;8.644;2023-02-02T08:37:48;100159.03;;;7.76;60.97
40574;BME280;26283;49.020;8.644;2023-02-02T08:40:14;100161.91;;;7.75;60.97
40574;BME280;26283;49.020;8.644;2023-02-02T08:42:39;100155.69;;;7.74;60.97
40574;BME280;26283;49.020;8.644;2023-02-02T08:45:05;100170.78;;;7.75;60.98
40574;BME280;26283;49.020;8.644;2023-02-02T08:47:31;100169.97;;;7.75;60.99
40574;BME280;26283;49.020;8.644;2023-02-02T08:49:56;100170.78;;;7.75;60.99
40574;BME280;26283;49.020;8.644;2023-02-02T08:52:22;100179.69;;;7.76;60.99
40574;BME280;26283;49.020;8.644;2023-02-02T08:54:47;100175.31;;;7.75;60.99
40574;BME280;26283;49.020;8.644;2023-02-02T08:57:12;100167.28;;;7.75;60.99
40574;BME280;26283;49.020;8.644;2023-02-02T08:59:38;100164.59;;;7.75;60.99
40574;BME280;26283;49.020;8.644;2023-02-02T09:02:03;100161.91;;;7.75;60.99
40574;BME280;26283;49.020;8.644;2023-02-02T09:04:29;100169.97;;;7.75;61.00
40574;BME280;26283;49.020;8.644;2023-02-02T09:06:54;100176.16;;;7.75;61.00
40574;BME280;26283;49.020;8.644;2023-02-02T09:09:20;100171.63;;;7.76;61.01
40574;BME280;26283;49.020;8.644;2023-02-02T09:11:45;100176.16;;;7.75;61.02
40574;BME280;26283;49.020;8.644;2023-02-02T09:14:12;100185.03;;;7.76;61.01
40574;BME280;26283;49.020;8.644;2023-02-02T09:16:38;100191.25;;;7.76;61.02
40574;BME280;26283;49.020;8.644;2023-02-02T09:19:04;100194.09;;;7.75;61.02
40574;BME280;26283;49.020;8.644;2023-02-02T09:21:30;100194.75;;;7.77;61.02
40574;BME280;26283;49.020;8.644;2023-02-02T09:24:04;100190.41;;;7.76;61.03
40574;BME280;26283;49.020;8.644;2023-02-02T09:26:31;100185.03;;;7.76;61.02
40574;BME280;26283;49.020;8.644;2023-02-02T09:28:58;100185.87;;;7.76;61.02
40574;BME280;26283;49.020;8.644;2023-02-02T09:31:25;100178.84;;;7.75;61.04
40574;BME280;26283;49.020;8.644;2023-02-02T09:33:51;100181.53;;;7.75;61.04
40574;BME280;26283;49.020;8.644;2023-02-02T09:36:18;100182.34;;;7.76;61.04
40574;BME280;26283;49.020;8.644;2023-02-02T09:38:47;100181.53;;;7.75;61.05
40574;BME280;26283;49.020;8.644;2023-02-02T09:41:44;100199.28;;;7.76;61.05
40574;BME280;26283;49.020;8.644;2023-02-02T09:58:19;100205.69;;;7.75;61.07
40574;BME280;26283;49.020;8.644;2023-02-02T10:03:29;100207.53;;;7.75;61.09
40574;BME280;26283;49.020;8.644;2023-02-02T10:08:46;100199.47;;;7.75;61.11
40574;BME280;26283;49.020;8.644;2023-02-02T10:11:26;100216.41;;;7.75;61.11
40574;BME280;26283;49.020;8.644;2023-02-02T10:13:57;100211.88;;;7.76;61.12
40574;BME280;26283;49.020;8.644;2023-02-02T10:16:24;100214.56;;;7.76;61.11
40574;BME280;26283;49.020;8.644;2023-02-02T10:18:58;100211.88;;;7.76;61.12
40574;BME280;26283;49.020;8.644;2023-02-02T10:24:25;100210.03;;;7.76;61.11
40574;BME280;26283;49.020;8.644;2023-02-02T10:26:58;100215.41;;;7.76;61.12
40574;BME280;26283;49.020;8.644;2023-02-02T10:32:20;100207.16;;;7.78;61.12
40574;BME280;26283;49.020;8.644;2023-02-02T10:43:03;100216.22;;;7.77;61.13
40574;BME280;26283;49.020;8.644;2023-02-02T10:45:54;100212.53;;;7.78;61.13
40574;BME280;26283;49.020;8.644;2023-02-02T10:48:25;100217.91;;;7.78;61.10
40574;BME280;26283;49.020;8.644;2023-02-02T10:50:58;100215.22;;;7.78;61.12
40574;BME280;26283;49.020;8.644;2023-02-02T10:53:28;100228.62;;;7.78;61.14
40574;BME280;26283;49.020;8.644;2023-02-02T10:58:33;100217.91;;;7.78;61.15
40574;BME280;26283;49.020;8.644;2023-02-02T11:01:02;100224.94;;;7.79;61.15
40574;BME280;26283;49.020;8.644;2023-02-02T11:03:32;100219.56;;;7.79;61.13
40574;BME280;26283;49.020;8.644;2023-02-02T11:05:59;100216.06;;;7.78;61.13
40574;BME280;26283;49.020;8.644;2023-02-02T11:08:46;100215.03;;;7.79;61.14
40574;BME280;26283;49.020;8.644;2023-02-02T11:11:25;100221.22;;;7.80;61.12
40574;BME280;26283;49.020;8.644;2023-02-02T11:13:59;100218.53;;;7.80;61.13
40574;BME280;26283;49.020;8.644;2023-02-02T11:16:28;100222.88;;;7.81;61.14
40574;BME280;26283;49.020;8.644;2023-02-02T11:18:54;100215.84;;;7.80;61.13
40574;BME280;26283;49.020;8.644;2023-02-02T11:21:27;100220.22;;;7.81;61.15
40574;BME280;26283;49.020;8.644;2023-02-02T11:24:01;100224.72;;;7.80;61.15
40574;BME280;26283;49.020;8.644;2023-02-02T11:26:46;100226.59;;;7.80;61.15
40574;BME280;26283;49.020;8.644;2023-02-02T11:29:15;100222.88;;;7.81;61.16
40574;BME280;26283;49.020;8.644;2023-02-02T11:31:43;100222.06;;;7.80;61.14
40574;BME280;26283;49.020;8.644;2023-02-02T11:34:15;100237.97;;;7.82;61.17
40574;BME280;26283;49.020;8.644;2023-02-02T11:37:04;100229.09;;;7.81;61.15
40574;BME280;26283;49.020;8.644;2023-02-02T11:39:36;100220.03;;;7.82;61.18
40574;BME280;26283;49.020;8.644;2023-02-02T11:42:17;100230.94;;;7.81;61.14
40574;BME280;26283;49.020;8.644;2023-02-02T11:44:52;100216.50;;;7.82;61.17
40574;BME280;26283;49.020;8.644;2023-02-02T11:47:27;100214.84;;;7.81;61.15
40574;BME280;26283;49.020;8.644;2023-02-02T11:49:55;100216.50;;;7.82;61.17
40574;BME280;26283;49.020;8.644;2023-02-02T11:52:24;100224.56;;;7.82;61.16
40574;BME280;26283;49.020;8.644;2023-02-02T11:54:58;100216.34;;;7.83;61.16
40574;BME280;26283;49.020;8.644;2023-02-02T11:57:26;100210.13;;;7.83;61.17
40574;BME280;26283;49.020;8.644;2023-02-02T12:02:36;100217.16;;;7.84;61.17
40574;BME280;26283;49.020;8.644;2023-02-02T12:07:44;100197.38;;;7.85;61.17
40574;BME280;26283;49.020;8.644;2023-02-02T12:10:31;100191.34;;;7.83;61.16
40574;BME280;26283;49.020;8.644;2023-02-02T12:13:15;100197.38;;;7.85;61.18
40574;BME280;26283;49.020;8.644;2023-02-02T12:21:27;100201.91;;;7.84;61.21
40574;BME280;26283;49.020;8.644;2023-02-02T12:26:38;100208.09;;;7.85;61.19
40574;BME280;26283;49.020;8.644;2023-02-02T12:29:23;100206.25;;;7.85;61.21
40574;BME280;26283;49.020;8.644;2023-02-02T12:49:06;100200.91;;;7.85;61.30
40574;BME280;26283;49.020;8.644;2023-02-02T13:02:37;100201.56;;;7.87;61.28
40574;BME280;26283;49.020;8.644;2023-02-02T13:05:32;100197.84;;;7.88;61.26
40574;BME280;26283;49.020;8.644;2023-02-02T13:08:04;100183.59;;;7.88;61.28
40574;BME280;26283;49.020;8.644;2023-02-02T13:10:36;100180.91;;;7.88;61.26
40574;BME280;26283;49.020;8.644;2023-02-02T13:13:10;100170.19;;;7.88;61.28
40574;BME280;26283;49.020;8.644;2023-02-02T13:15:40;100168.34;;;7.88;61.28
40574;BME280;26283;49.020;8.644;2023-02-02T13:18:12;100166.50;;;7.89;61.28
40574;BME280;26283;49.020;8.644;2023-02-02T13:21:04;100174.38;;;7.90;61.26
40574;BME280;26283;49.020;8.644;2023-02-02T13:23:35;100172.69;;;7.89;61.26
40574;BME280;26283;49.020;8.644;2023-02-02T13:26:11;100187.78;;;7.90;61.23
40574;BME280;26283;49.020;8.644;2023-02-02T13:28:48;100180.56;;;7.91;61.24
40574;BME280;26283;49.020;8.644;2023-02-02T13:31:21;100196.66;;;7.91;61.23
40574;BME280;26283;49.020;8.644;2023-02-02T13:34:05;100206.37;;;7.92;61.24
40574;BME280;26283;49.020;8.644;2023-02-02T13:36:35;100205.56;;;7.91;61.25
40574;BME280;26283;49.020;8.644;2023-02-02T13:39:14;100198.34;;;7.92;61.23
40574;BME280;26283;49.020;8.644;2023-02-02T13:41:41;100200.00;;;7.93;61.24
40574;BME280;26283;49.020;8.644;2023-02-02T13:44:13;100210.75;;;7.93;61.23
40574;BME280;26283;49.020;8.644;2023-02-02T13:46:54;100212.41;;;7.94;61.20
40574;BME280;26283;49.020;8.644;2023-02-02T13:49:37;100208.06;;;7.93;61.20
40574;BME280;26283;49.020;8.644;2023-02-02T13:52:29;100218.62;;;7.95;61.19
40574;BME280;26283;49.020;8.644;2023-02-02T14:00:52;100219.63;;;7.94;61.26
40574;BME280;26283;49.020;8.644;2023-02-02T14:03:30;100227.50;;;7.95;61.23
40574;BME280;26283;49.020;8.644;2023-02-02T14:06:12;100224.81;;;7.95;61.26
40574;BME280;26283;49.020;8.644;2023-02-02T14:11:20;100225.84;;;7.94;61.29
40574;BME280;26283;49.020;8.644;2023-02-02T14:13:48;100232.88;;;7.95;61.30
40574;BME280;26283;49.020;8.644;2023-02-02T14:19:00;100242.59;;;7.96;61.28
40574;BME280;26283;49.020;8.644;2023-02-02T14:26:45;100242.44;;;7.98;61.30
40574;BME280;26283;49.020;8.644;2023-02-02T14:34:41;100255.84;;;7.98;61.27
40574;BME280;26283;49.020;8.644;2023-02-02T14:45:34;100254.84;;;7.99;61.28
40574;BME280;26283;49.020;8.644;2023-02-02T14:56:02;100268.09;;;8.00;61.29
40574;BME280;26283;49.020;8.644;2023-02-02T15:03:56;100277.16;;;7.99;61.27
40574;BME280;26283;49.020;8.644;2023-02-02T15:06:42;100281.50;;;8.00;61.29
40574;BME280;26283;49.020;8.644;2023-02-02T15:20:39;100294.72;;;8.02;61.29
40574;BME280;26283;49.020;8.644;2023-02-02T15:23:37;100288.50;;;8.01;61.27
40574;BME280;26283;49.020;8.644;2023-02-02T15:26:14;100296.56;;;8.01;61.28
40574;BME280;26283;49.020;8.644;2023-02-02T15:28:48;100306.31;;;8.02;61.28
40574;BME280;26283;49.020;8.644;2023-02-02T15:31:26;100313.50;;;8.02;61.29
40574;BME280;26283;49.020;8.644;2023-02-02T15:34:01;100309.81;;;8.03;61.29
40574;BME280;26283;49.020;8.644;2023-02-02T15:36:31;100312.50;;;8.03;61.28
40574;BME280;26283;49.020;8.644;2023-02-02T15:39:02;100316.84;;;8.04;61.28
40574;BME280;26283;49.020;8.644;2023-02-02T15:41:36;100324.91;;;8.04;61.28
40574;BME280;26283;49.020;8.644;2023-02-02T15:44:20;100329.44;;;8.03;61.28
40574;BME280;26283;49.020;8.644;2023-02-02T15:46:51;100340.84;;;8.05;61.28
40574;BME280;26283;49.020;8.644;2023-02-02T15:51:48;100339.84;;;8.06;61.27
40574;BME280;26283;49.020;8.644;2023-02-02T15:54:21;100343.34;;;8.07;61.26
40574;BME280;26283;49.020;8.644;2023-02-02T15:56:47;100345.22;;;8.06;61.25